createdAt,value
2023-05-15T00:00:01.902Z,15.46
2023-05-15T00:02:57.315Z,15.54
2023-05-15T00:05:41.548Z,15.32
2023-05-15T00:08:25.449Z,15.38
2023-05-15T00:11:10.764Z,15.46
2023-05-15T00:13:54.701Z,15.55
2023-05-15T00:16:38.513Z,15.64
2023-05-15T00:19:22.546Z,15.41
2023-05-15T00:22:06.822Z,15.36
2023-05-15T00:24:50.671Z,15.59
2023-05-15T00:27:36.233Z,15.25
2023-05-15T00:30:21.065Z,15.21
2023-05-15T00:33:05.169Z,15.35
2023-05-15T00:35:49.058Z,15.40
2023-05-15T00:38:34.587Z,15.52
2023-05-15T00:41:23.781Z,15.39
2023-05-15T00:44:11.151Z,15.38
2023-05-15T00:46:57.380Z,15.33
2023-05-15T00:49:42.212Z,15.06
2023-05-15T00:52:26.366Z,15.44
2023-05-15T00:55:10.652Z,15.18
2023-05-15T00:57:55.786Z,14.94
2023-05-15T01:00:41.345Z,15.28
2023-05-15T01:03:25.467Z,15.71
2023-05-15T01:06:09.380Z,15.43
2023-05-15T01:08:54.960Z,15.38
2023-05-15T01:11:40.540Z,15.60
2023-05-15T01:14:24.457Z,15.68
2023-05-15T01:17:10.039Z,15.82
2023-05-15T01:19:54.219Z,15.86
2023-05-15T01:22:53.233Z,15.75
2023-05-15T01:26:17.000Z,15.70
2023-05-15T01:29:06.029Z,15.66
2023-05-15T01:32:00.632Z,15.75
2023-05-15T01:34:49.726Z,15.61
2023-05-15T01:37:36.401Z,15.55
2023-05-15T01:40:23.865Z,15.40
2023-05-15T01:43:12.982Z,15.63
2023-05-15T01:46:00.548Z,15.46
2023-05-15T01:48:47.481Z,15.54
2023-05-15T01:51:33.189Z,15.41
2023-05-15T01:54:18.178Z,15.52
2023-05-15T01:57:02.554Z,15.60
2023-05-15T01:59:47.171Z,15.54
2023-05-15T02:02:33.034Z,15.32
2023-05-15T02:05:18.671Z,14.89
2023-05-15T02:08:05.697Z,14.87
2023-05-15T02:10:51.060Z,15.28
2023-05-15T02:13:38.240Z,15.24
2023-05-15T02:16:22.497Z,15.16
2023-05-15T02:19:08.221Z,15.34
2023-05-15T02:21:51.911Z,15.24
2023-05-15T02:24:35.832Z,15.22
2023-05-15T02:27:24.593Z,15.22
2023-05-15T02:30:18.945Z,15.05
2023-05-15T02:33:13.764Z,15.29
2023-05-15T02:36:03.214Z,15.15
2023-05-15T02:38:50.508Z,15.24
2023-05-15T02:41:39.375Z,15.15
2023-05-15T02:44:23.896Z,15.08
2023-05-15T02:47:08.916Z,15.18
2023-05-15T02:49:53.238Z,14.98
2023-05-15T02:52:38.428Z,15.25
2023-05-15T02:55:22.267Z,15.20
2023-05-15T02:58:06.621Z,15.12
2023-05-15T03:00:50.535Z,15.24
2023-05-15T03:03:35.032Z,15.16
2023-05-15T03:06:18.972Z,15.23
2023-05-15T03:09:04.188Z,15.04
2023-05-15T03:11:48.061Z,15.36
2023-05-15T03:14:31.898Z,15.19
2023-05-15T03:17:16.116Z,15.26
2023-05-15T03:20:00.620Z,15.40
2023-05-15T03:22:44.572Z,15.38
2023-05-15T03:25:29.850Z,15.33
2023-05-15T03:28:13.717Z,14.91
2023-05-15T03:30:57.628Z,15.41
2023-05-15T03:33:41.879Z,15.19
2023-05-15T03:36:25.693Z,15.35
2023-05-15T03:39:10.053Z,15.39
2023-05-15T03:41:58.877Z,15.61
2023-05-15T03:44:42.789Z,15.67
2023-05-15T03:47:26.747Z,15.49
2023-05-15T03:50:11.513Z,15.54
2023-05-15T03:52:55.557Z,15.59
2023-05-15T03:55:39.430Z,15.70
2023-05-15T03:58:26.782Z,15.71
2023-05-15T04:01:10.670Z,15.54
2023-05-15T04:03:54.464Z,15.92
2023-05-15T04:06:38.416Z,16.16
2023-05-15T04:09:22.203Z,16.44
2023-05-15T04:12:07.103Z,16.47
2023-05-15T04:14:52.368Z,16.38
2023-05-15T04:17:36.284Z,15.99
2023-05-15T04:20:22.446Z,16.24
2023-05-15T04:23:06.316Z,16.33
2023-05-15T04:25:50.280Z,16.44
2023-05-15T04:28:34.208Z,16.43
2023-05-15T04:31:19.907Z,16.46
2023-05-15T04:34:04.446Z,16.43
2023-05-15T04:36:49.006Z,16.38
2023-05-15T04:39:32.856Z,16.29
2023-05-15T04:42:16.730Z,16.14
2023-05-15T04:45:00.833Z,16.45
2023-05-15T04:47:46.996Z,16.66
2023-05-15T04:50:31.051Z,16.68
2023-05-15T04:53:15.269Z,16.68
2023-05-15T04:55:59.195Z,16.61
2023-05-15T04:58:42.905Z,16.62
2023-05-15T05:01:26.924Z,16.72
2023-05-15T05:04:12.213Z,16.45
2023-05-15T05:06:56.080Z,16.25
2023-05-15T05:09:40.864Z,16.70
2023-05-15T05:12:26.035Z,16.39
2023-05-15T05:15:14.430Z,16.45
2023-05-15T05:17:58.323Z,16.94
2023-05-15T05:20:43.652Z,17.30
2023-05-15T05:23:27.488Z,17.18
2023-05-15T05:26:11.519Z,17.63
2023-05-15T05:28:55.395Z,17.92
2023-05-15T05:31:39.511Z,17.56
2023-05-15T05:34:23.692Z,17.96
2023-05-15T05:37:08.959Z,18.27
2023-05-15T05:39:53.032Z,18.93
2023-05-15T05:42:36.806Z,18.12
2023-05-15T05:45:20.706Z,18.14
2023-05-15T05:48:04.633Z,18.14
2023-05-15T05:50:48.465Z,18.30
2023-05-15T05:53:33.711Z,18.95
2023-05-15T05:56:17.580Z,19.32
2023-05-15T05:59:02.106Z,18.96
2023-05-15T06:01:46.221Z,18.21
2023-05-15T06:04:30.410Z,18.68
2023-05-15T06:07:14.303Z,18.47
2023-05-15T06:09:59.558Z,18.35
2023-05-15T06:12:43.723Z,18.58
2023-05-15T06:15:27.864Z,17.98
2023-05-15T06:18:12.039Z,18.38
2023-05-15T06:20:56.179Z,18.36
2023-05-15T06:23:39.878Z,18.01
2023-05-15T06:26:25.825Z,17.14
2023-05-15T06:29:10.018Z,17.27
2023-05-15T06:31:53.914Z,17.76
2023-05-15T06:34:37.932Z,17.40
2023-05-15T06:37:21.979Z,18.32
2023-05-15T06:40:07.161Z,18.85
2023-05-15T06:42:52.673Z,19.31
2023-05-15T06:45:36.498Z,19.85
2023-05-15T06:48:20.696Z,19.45
2023-05-15T06:51:05.143Z,20.17
2023-05-15T06:53:48.946Z,19.51
2023-05-15T06:56:32.853Z,19.51
2023-05-15T06:59:18.368Z,19.30
2023-05-15T07:02:02.671Z,19.48
2023-05-15T07:04:47.048Z,20.27
2023-05-15T07:07:31.033Z,20.67
2023-05-15T07:10:15.186Z,20.02
2023-05-15T07:12:59.152Z,19.72
2023-05-15T07:15:44.600Z,20.20
2023-05-15T07:18:28.899Z,20.96
2023-05-15T07:21:12.925Z,20.72
2023-05-15T07:23:56.887Z,20.40
2023-05-15T07:26:50.355Z,21.21
2023-05-15T07:29:41.429Z,20.27
2023-05-15T07:32:26.775Z,19.72
2023-05-15T07:35:12.609Z,20.34
2023-05-15T07:37:56.680Z,20.28
2023-05-15T07:40:40.763Z,20.35
2023-05-15T07:43:24.763Z,19.85
2023-05-15T07:46:08.709Z,20.58
2023-05-15T07:48:54.787Z,19.61
2023-05-15T07:51:38.814Z,19.99
2023-05-15T07:54:22.837Z,20.02
2023-05-15T07:57:07.241Z,19.69
2023-05-15T07:59:51.306Z,19.90
2023-05-15T08:02:35.283Z,20.31
2023-05-15T08:05:20.785Z,20.08
2023-05-15T08:08:04.964Z,20.47
2023-05-15T08:10:48.740Z,19.65
2023-05-15T08:13:33.010Z,19.95
2023-05-15T08:16:17.369Z,19.65
2023-05-15T08:19:04.941Z,19.43
2023-05-15T08:21:51.306Z,19.79
2023-05-15T08:24:36.090Z,19.63
2023-05-15T08:27:20.634Z,19.72
2023-05-15T08:30:05.376Z,19.84
2023-05-15T08:32:52.104Z,18.93
2023-05-15T08:35:36.501Z,19.58
2023-05-15T08:38:22.564Z,19.55
2023-05-15T08:41:12.440Z,19.55
2023-05-15T08:43:57.702Z,20.00
2023-05-15T08:46:42.316Z,20.41
2023-05-15T08:49:34.080Z,20.29
2023-05-15T08:52:18.770Z,20.36
2023-05-15T08:55:04.800Z,20.40
2023-05-15T08:57:50.786Z,20.32
2023-05-15T09:00:35.164Z,20.72
2023-05-15T09:03:20.081Z,20.06
2023-05-15T09:06:06.450Z,20.37
2023-05-15T09:08:52.611Z,20.62
2023-05-15T09:11:39.148Z,20.27
2023-05-15T09:14:23.338Z,20.29
2023-05-15T09:17:07.386Z,20.51
2023-05-15T09:19:51.520Z,20.46
2023-05-15T09:22:37.134Z,20.88
2023-05-15T09:25:34.636Z,20.27
2023-05-15T09:28:29.711Z,20.40
2023-05-15T09:31:13.931Z,20.65
2023-05-15T09:34:02.041Z,19.93
2023-05-15T09:36:46.004Z,20.47
2023-05-15T09:39:30.151Z,20.68
2023-05-15T09:42:15.897Z,21.14
2023-05-15T09:45:01.394Z,21.48
2023-05-15T09:47:51.520Z,20.88
2023-05-15T09:50:37.299Z,21.55
2023-05-15T09:53:23.586Z,21.31
2023-05-15T09:56:08.256Z,21.58
2023-05-15T09:58:56.202Z,21.60
2023-05-15T10:01:44.989Z,21.33
2023-05-15T10:04:35.951Z,20.24
2023-05-15T10:07:29.209Z,20.36
2023-05-15T10:10:13.918Z,21.21
2023-05-15T10:12:59.950Z,21.09
2023-05-15T10:15:45.979Z,21.61
2023-05-15T10:18:33.922Z,21.25
2023-05-15T10:21:20.807Z,20.31
2023-05-15T10:24:05.734Z,20.43
2023-05-15T10:26:50.834Z,21.37
2023-05-15T10:29:36.476Z,21.12
2023-05-15T10:32:21.491Z,20.41
2023-05-15T10:35:07.842Z,20.79
2023-05-15T10:37:51.863Z,20.85
2023-05-15T10:40:38.901Z,20.77
2023-05-15T10:43:23.960Z,21.91
2023-05-15T10:46:09.021Z,22.31
2023-05-15T10:48:53.512Z,22.55
2023-05-15T10:51:41.172Z,22.65
2023-05-15T10:54:25.731Z,22.60
2023-05-15T10:57:10.684Z,22.95
2023-05-15T10:59:54.813Z,22.31
2023-05-15T11:02:40.801Z,22.50
2023-05-15T11:05:25.969Z,22.66
2023-05-15T11:08:27.616Z,21.61
2023-05-15T11:11:50.249Z,20.77
2023-05-15T11:14:37.110Z,20.76
2023-05-15T11:17:22.562Z,20.70
2023-05-15T11:20:07.632Z,21.28
2023-05-15T11:23:00.433Z,21.25
2023-05-15T11:25:54.752Z,21.16
2023-05-15T11:28:47.323Z,21.92
2023-05-15T11:31:31.925Z,22.11
2023-05-15T11:34:16.365Z,22.07
2023-05-15T11:37:01.406Z,21.80
2023-05-15T11:39:47.696Z,22.25
2023-05-15T11:42:33.610Z,22.01
2023-05-15T11:45:18.062Z,22.22
2023-05-15T11:48:03.917Z,22.29
2023-05-15T11:50:48.336Z,20.69
2023-05-15T11:53:34.053Z,21.63
2023-05-15T11:56:21.835Z,21.72
2023-05-15T11:59:07.654Z,21.70
2023-05-15T12:01:51.774Z,21.67
2023-05-15T12:04:36.107Z,21.79
2023-05-15T12:07:20.504Z,22.47
2023-05-15T12:10:04.869Z,21.07
2023-05-15T12:12:50.637Z,20.97
2023-05-15T12:15:39.190Z,21.68
2023-05-15T12:18:23.473Z,21.64
2023-05-15T12:21:07.778Z,21.52
2023-05-15T12:24:06.435Z,20.84
2023-05-15T12:26:52.070Z,21.49
2023-05-15T12:29:37.179Z,21.86
2023-05-15T12:32:23.037Z,21.60
2023-05-15T12:35:07.815Z,22.00
2023-05-15T12:37:52.164Z,21.37
2023-05-15T12:40:37.311Z,21.49
2023-05-15T12:43:21.990Z,21.22
2023-05-15T12:46:06.654Z,22.33
2023-05-15T12:48:53.090Z,21.87
2023-05-15T12:51:44.042Z,20.60
2023-05-15T12:54:28.152Z,21.10
2023-05-15T12:57:13.107Z,20.59
2023-05-15T12:59:57.503Z,20.03
2023-05-15T13:02:46.077Z,21.06
2023-05-15T13:05:34.406Z,22.39
2023-05-15T13:08:19.642Z,20.92
2023-05-15T13:11:03.879Z,21.39
2023-05-15T13:13:49.383Z,22.19
2023-05-15T13:16:33.576Z,21.83
2023-05-15T13:19:17.930Z,21.84
2023-05-15T13:22:03.494Z,20.82
2023-05-15T13:24:47.492Z,21.76
2023-05-15T13:27:31.514Z,22.27
2023-05-15T13:30:16.158Z,20.59
2023-05-15T13:33:01.228Z,20.42
2023-05-15T13:35:45.308Z,21.87
2023-05-15T13:38:31.356Z,22.08
2023-05-15T13:41:15.332Z,22.36
2023-05-15T13:43:59.313Z,22.70
2023-05-15T13:46:43.367Z,21.75
2023-05-15T13:49:27.286Z,21.31
2023-05-15T13:52:11.215Z,21.92
2023-05-15T13:54:56.796Z,21.79
2023-05-15T13:57:42.391Z,22.10
2023-05-15T14:00:26.651Z,20.90
2023-05-15T14:03:12.735Z,21.37
2023-05-15T14:05:58.811Z,21.51
2023-05-15T14:08:42.646Z,21.61
2023-05-15T14:11:28.027Z,21.56
2023-05-15T14:14:11.797Z,21.86
2023-05-15T14:16:55.610Z,22.87
2023-05-15T14:19:39.720Z,22.85
2023-05-15T14:22:29.311Z,21.18
2023-05-15T14:25:13.220Z,22.39
2023-05-15T14:27:58.480Z,22.74
2023-05-15T14:30:42.293Z,21.22
2023-05-15T14:33:26.761Z,21.98
2023-05-15T14:36:10.717Z,22.61
2023-05-15T14:38:54.495Z,21.92
2023-05-15T14:41:38.354Z,22.16
2023-05-15T14:44:23.701Z,22.27
2023-05-15T14:47:09.072Z,23.06
2023-05-15T14:49:52.948Z,21.98
2023-05-15T14:52:37.008Z,22.34
2023-05-15T14:55:22.249Z,22.25
2023-05-15T14:58:07.096Z,21.62
2023-05-15T15:00:52.588Z,21.08
2023-05-15T15:03:36.760Z,21.30
2023-05-15T15:06:20.817Z,21.33
2023-05-15T15:09:04.980Z,21.48
2023-05-15T15:11:49.037Z,21.29
2023-05-15T15:14:33.323Z,20.03
2023-05-15T15:17:18.957Z,19.67
2023-05-15T15:20:05.487Z,20.06
2023-05-15T15:22:49.608Z,20.25
2023-05-15T15:25:34.718Z,20.85
2023-05-15T15:28:18.747Z,20.66
2023-05-15T15:31:02.653Z,20.30
2023-05-15T15:33:48.163Z,20.73
2023-05-15T15:36:32.670Z,20.88
2023-05-15T15:39:16.501Z,19.36
2023-05-15T15:42:00.382Z,19.70
2023-05-15T15:44:44.504Z,19.60
2023-05-15T15:47:29.632Z,19.62
2023-05-15T15:50:14.928Z,18.80
2023-05-15T15:52:58.767Z,19.05
2023-05-15T15:55:43.478Z,19.68
2023-05-15T15:58:28.699Z,19.49
2023-05-15T16:01:12.569Z,19.63
2023-05-15T16:03:56.401Z,19.85
2023-05-15T16:06:41.576Z,19.81
2023-05-15T16:09:25.531Z,19.92
2023-05-15T16:12:09.901Z,19.47
2023-05-15T16:14:54.400Z,19.81
2023-05-15T16:17:39.070Z,19.06
2023-05-15T16:20:22.906Z,18.95
2023-05-15T16:23:09.593Z,19.26
2023-05-15T16:25:53.522Z,19.20
2023-05-15T16:28:37.359Z,19.46
2023-05-15T16:31:21.559Z,18.88
2023-05-15T16:34:05.722Z,18.23
2023-05-15T16:36:49.598Z,18.58
2023-05-15T16:39:38.740Z,18.41
2023-05-15T16:42:22.745Z,18.11
2023-05-15T16:45:07.890Z,18.17
2023-05-15T16:47:51.885Z,18.79
2023-05-15T16:50:37.400Z,18.71
2023-05-15T16:53:21.846Z,18.29
2023-05-15T16:56:08.072Z,17.93
2023-05-15T16:58:53.047Z,17.69
2023-05-15T17:01:36.959Z,17.74
2023-05-15T17:04:20.896Z,18.11
2023-05-15T17:07:05.524Z,18.20
2023-05-15T17:09:49.343Z,18.80
2023-05-15T17:12:35.052Z,18.57
2023-05-15T17:15:19.141Z,18.55
2023-05-15T17:18:03.075Z,18.72
2023-05-15T17:20:46.872Z,18.58
2023-05-15T17:23:30.690Z,18.53
2023-05-15T17:26:14.806Z,18.51
2023-05-15T17:28:59.975Z,18.86
2023-05-15T17:31:43.838Z,18.61
2023-05-15T17:34:28.011Z,18.59
2023-05-15T17:37:12.500Z,18.59
2023-05-15T17:39:56.543Z,18.25
2023-05-15T17:42:40.480Z,17.99
2023-05-15T17:45:27.090Z,17.42
2023-05-15T17:48:11.383Z,18.00
2023-05-15T17:50:55.531Z,17.06
2023-05-15T17:53:39.641Z,17.79
2023-05-15T17:56:23.831Z,17.73
2023-05-15T17:59:07.700Z,17.54
2023-05-15T18:01:53.112Z,17.01
2023-05-15T18:04:37.079Z,17.40
2023-05-15T18:07:21.311Z,17.28
2023-05-15T18:10:06.617Z,17.16
2023-05-15T18:12:50.855Z,16.99
2023-05-15T18:15:35.310Z,17.08
2023-05-15T18:18:20.616Z,16.86
2023-05-15T18:21:05.554Z,17.08
2023-05-15T18:23:49.581Z,17.21
2023-05-15T18:26:33.641Z,17.20
2023-05-15T18:29:17.693Z,17.35
2023-05-15T18:32:01.826Z,17.32
2023-05-15T18:34:47.911Z,17.13
2023-05-15T18:37:31.967Z,16.89
2023-05-15T18:40:16.242Z,17.48
2023-05-15T18:43:00.244Z,17.66
2023-05-15T18:45:44.042Z,17.32
2023-05-15T18:48:27.950Z,17.36
2023-05-15T18:51:14.361Z,17.38
2023-05-15T18:53:58.476Z,16.38
2023-05-15T18:56:43.250Z,17.57
2023-05-15T18:59:27.737Z,17.48
2023-05-15T19:02:11.727Z,17.50
2023-05-15T19:04:55.663Z,17.11
2023-05-15T19:07:42.744Z,16.85
2023-05-15T19:10:29.286Z,17.04
2023-05-15T19:13:13.253Z,17.22
2023-05-15T19:15:57.271Z,17.45
2023-05-15T19:18:41.171Z,17.20
2023-05-15T19:21:25.095Z,17.33
2023-05-15T19:24:10.689Z,17.41
2023-05-15T19:26:55.197Z,16.94
2023-05-15T19:29:40.021Z,16.80
2023-05-15T19:32:25.149Z,17.06
2023-05-15T19:35:10.097Z,16.77
2023-05-15T19:37:54.135Z,16.54
2023-05-15T19:40:39.457Z,16.16
2023-05-15T19:43:23.318Z,16.81
2023-05-15T19:46:07.857Z,17.08
2023-05-15T19:48:51.982Z,17.23
2023-05-15T19:51:35.949Z,17.06
2023-05-15T19:54:19.886Z,17.02
2023-05-15T19:57:05.596Z,17.05
2023-05-15T19:59:49.662Z,17.05
2023-05-15T20:02:33.641Z,17.11
2023-05-15T20:05:17.709Z,17.12
2023-05-15T20:08:01.539Z,16.40
2023-05-15T20:10:45.851Z,16.16
2023-05-15T20:13:31.469Z,16.47
2023-05-15T20:16:16.696Z,16.39
2023-05-15T20:19:00.675Z,16.18
2023-05-15T20:21:44.492Z,15.77
2023-05-15T20:24:28.384Z,15.83
2023-05-15T20:27:12.401Z,15.97
2023-05-15T20:29:57.653Z,15.89
2023-05-15T20:32:41.677Z,15.62
2023-05-15T20:35:26.828Z,16.14
2023-05-15T20:38:11.937Z,16.28
2023-05-15T20:40:56.859Z,16.19
2023-05-15T20:43:40.688Z,15.93
2023-05-15T20:46:29.526Z,16.16
2023-05-15T20:49:13.666Z,16.32
2023-05-15T20:51:57.636Z,16.39
2023-05-15T20:54:41.535Z,16.18
2023-05-15T20:57:25.333Z,16.22
2023-05-15T21:00:10.670Z,16.28
2023-05-15T21:02:55.979Z,16.20
2023-05-15T21:05:39.885Z,16.34
2023-05-15T21:08:24.132Z,16.33
2023-05-15T21:11:08.091Z,16.45
2023-05-15T21:13:52.124Z,16.03
2023-05-15T21:16:36.542Z,15.99
2023-05-15T21:19:21.920Z,16.11
2023-05-15T21:22:06.240Z,15.91
2023-05-15T21:24:49.997Z,15.67
2023-05-15T21:27:33.949Z,15.76
2023-05-15T21:30:17.949Z,15.87
2023-05-15T21:33:01.967Z,15.65
2023-05-15T21:35:47.552Z,15.41
2023-05-15T21:38:32.861Z,15.42
2023-05-15T21:41:16.994Z,15.42
2023-05-15T21:44:01.005Z,15.45
2023-05-15T21:46:44.850Z,15.08
2023-05-15T21:49:28.837Z,15.22
2023-05-15T21:52:14.089Z,15.13
2023-05-15T21:54:57.895Z,14.65
2023-05-15T21:57:41.806Z,14.50
2023-05-15T22:00:25.982Z,14.50
2023-05-15T22:03:10.078Z,14.76
2023-05-15T22:05:54.075Z,14.84
2023-05-15T22:08:39.283Z,14.65
2023-05-15T22:11:23.676Z,14.70
2023-05-15T22:14:07.765Z,14.91
2023-05-15T22:16:51.696Z,14.95
2023-05-15T22:19:35.768Z,14.96
2023-05-15T22:22:19.751Z,15.01
2023-05-15T22:25:05.445Z,14.89
2023-05-15T22:27:49.529Z,15.11
2023-05-15T22:30:33.295Z,15.08
2023-05-15T22:33:17.064Z,15.30
2023-05-15T22:36:02.305Z,15.09
2023-05-15T22:38:46.149Z,15.30
2023-05-15T22:41:34.428Z,15.37
2023-05-15T22:44:18.302Z,15.50
2023-05-15T22:47:02.198Z,15.65
2023-05-15T22:49:46.090Z,15.67
2023-05-15T22:52:29.931Z,15.79
2023-05-15T22:55:14.047Z,15.67
2023-05-15T22:57:59.462Z,15.17
2023-05-15T23:00:43.616Z,15.02
2023-05-15T23:03:27.723Z,15.05
2023-05-15T23:06:17.261Z,14.78
2023-05-15T23:09:01.924Z,14.82
2023-05-15T23:11:45.977Z,15.20
2023-05-15T23:14:31.366Z,15.16
2023-05-15T23:17:15.651Z,15.06
2023-05-15T23:19:59.704Z,15.04
2023-05-15T23:22:43.710Z,15.11
2023-05-15T23:25:27.731Z,15.02
2023-05-15T23:28:11.825Z,15.25
2023-05-15T23:30:57.482Z,15.36
2023-05-15T23:33:41.691Z,15.71
2023-05-15T23:36:25.777Z,15.50
2023-05-15T23:39:09.839Z,15.55
2023-05-15T23:41:53.817Z,15.42
2023-05-15T23:44:37.893Z,15.52
2023-05-15T23:47:23.368Z,15.41
2023-05-15T23:50:09.219Z,15.54
2023-05-15T23:52:53.113Z,15.65
2023-05-15T23:55:37.177Z,15.49
2023-05-15T23:58:21.610Z,15.53
